Time;durP1;ratioP1;P1;durP2;ratioP2;P2;SDS_P1;SDS_P2;PMS_P1;PMS_P2;Temp;Humidity;BMP_temperature;BMP_pressure;BME280_temperature;BME280_humidity;BME280_pressure;Samples;Min_cycle;Max_cycle;Signal;HPM_P1;HPM_P2
2023/08/07 00:02:22;;;;;;;0.97;0.87;;;19.20;95.90;;;19.67;61.15;94418.06;5072384;28;20647;-56
2023/08/07 00:04:49;;;;;;;1.10;1.00;;;19.30;95.90;;;19.64;61.02;94421.16;5078822;28;20543;-55
2023/08/07 00:07:18;;;;;;;1.80;1.20;;;19.20;96.10;;;19.60;61.16;94421.78;5076435;28;20492;-59
2023/08/07 00:09:45;;;;;;;0.93;0.83;;;19.20;96.10;;;19.56;61.31;94424.00;5075668;28;21022;-61
2023/08/07 00:12:13;;;;;;;1.53;0.90;;;19.10;96.20;;;19.54;61.14;94426.06;5077260;28;20482;-57
2023/08/07 00:14:41;;;;;;;1.20;1.10;;;19.10;96.20;;;19.50;61.36;94425.69;5075411;28;20447;-61
2023/08/07 00:17:08;;;;;;;1.50;1.10;;;19.10;96.60;;;19.49;61.67;94428.53;5076678;28;20469;-57
2023/08/07 00:19:35;;;;;;;1.10;1.00;;;19.10;96.80;;;19.46;62.26;94429.78;5080461;28;20532;-61
2023/08/07 00:22:02;;;;;;;1.30;1.20;;;19.10;97.10;;;19.44;62.08;94436.31;5076451;28;20493;-56
2023/08/07 00:24:30;;;;;;;1.37;1.27;;;19.00;97.10;;;19.40;62.15;94433.25;5079042;28;20955;-56
2023/08/07 00:26:57;;;;;;;1.73;1.10;;;19.00;97.20;;;19.39;62.10;94430.78;5081927;28;20649;-56
2023/08/07 00:29:26;;;;;;;1.93;1.13;;;19.00;97.40;;;19.33;63.05;94427.94;5076822;28;20473;-60
2023/08/07 00:31:53;;;;;;;1.13;1.03;;;18.90;97.60;;;19.32;63.10;94428.13;5079410;28;20474;-57
2023/08/07 00:34:20;;;;;;;2.40;1.40;;;18.90;97.60;;;19.31;62.67;94432.63;5076505;28;20482;-64
2023/08/07 00:36:48;;;;;;;1.40;1.13;;;18.90;97.60;;;19.29;62.75;94429.34;5077641;28;20480;-60
2023/08/07 00:39:15;;;;;;;1.83;1.37;;;18.90;97.80;;;19.25;62.92;94436.13;5079596;28;20494;-62
2023/08/07 00:41:42;;;;;;;1.20;1.10;;;18.90;97.60;;;19.19;63.11;94434.25;5078767;28;20680;-59
2023/08/07 00:44:10;;;;;;;1.47;1.37;;;18.80;97.80;;;19.18;63.14;94429.97;5077728;28;20458;-57
2023/08/07 00:46:39;;;;;;;1.07;0.97;;;18.80;98.00;;;19.14;62.98;94423.41;5077985;28;20990;-57
2023/08/07 00:49:06;;;;;;;3.17;1.43;;;18.70;97.90;;;19.11;63.39;94426.47;5078100;28;21120;-55
2023/08/07 00:51:34;;;;;;;1.37;1.27;;;18.70;98.00;;;19.10;62.83;94425.66;5075301;28;20588;-58
2023/08/07 00:54:01;;;;;;;1.57;1.47;;;18.70;98.00;;;19.09;63.46;94433.88;5076233;28;20478;-56
2023/08/07 00:56:28;;;;;;;1.70;1.60;;;18.70;98.00;;;19.06;63.48;94437.75;5076861;28;20474;-56
2023/08/07 00:58:56;;;;;;;2.73;1.50;;;18.60;98.10;;;19.04;63.41;94447.81;5073509;28;22165;-57
2023/08/07 01:01:23;;;;;;;2.07;1.80;;;18.60;98.10;;;19.02;63.42;94454.34;5072787;28;20509;-57
2023/08/07 01:03:52;;;;;;;1.73;1.60;;;18.60;98.10;;;18.99;63.17;94448.41;5074919;28;20466;-59
2023/08/07 01:06:19;;;;;;;2.70;1.77;;;18.60;98.30;;;18.97;63.76;94460.28;5071831;28;21029;-56
2023/08/07 01:08:46;;;;;;;1.47;1.30;;;18.60;98.30;;;18.95;64.02;94465.81;5074074;28;20458;-60
2023/08/07 01:11:22;;;;;;;2.33;2.23;;;18.50;98.60;;;18.93;63.70;94462.53;5074416;28;20470;-57
2023/08/07 01:13:57;;;;;;;1.90;1.80;;;18.50;98.60;;;18.90;64.18;94473.59;5073409;28;20469;-57
2023/08/07 01:16:31;;;;;;;3.50;1.97;;;18.50;98.60;;;18.85;63.93;94478.69;5072952;28;20892;-59
2023/08/07 01:18:59;;;;;;;2.17;2.07;;;18.50;98.60;;;18.83;63.97;94472.72;5081052;28;20480;-61
2023/08/07 01:21:27;;;;;;;5.30;2.40;;;18.40;98.70;;;18.83;63.57;94469.25;5078523;28;20498;-59
2023/08/07 01:23:55;;;;;;;2.30;2.20;;;18.40;98.60;;;18.83;63.76;94471.91;5081913;28;21009;-56
2023/08/07 01:26:22;;;;;;;2.40;2.23;;;18.40;98.80;;;18.82;64.07;94473.72;5079870;28;21041;-59
2023/08/07 01:28:55;;;;;;;3.87;2.00;;;18.40;98.80;;;18.83;63.85;94470.06;5081083;28;20446;-60
2023/08/07 01:31:23;;;;;;;2.10;2.00;;;18.40;98.90;;;18.83;64.35;94471.91;5077935;28;20470;-60
2023/08/07 01:33:58;;;;;;;2.17;2.07;;;18.40;99.00;;;18.83;63.99;94471.91;5078853;28;20938;-60
2023/08/07 01:36:27;;;;;;;2.10;2.00;;;18.40;98.80;;;18.82;63.59;94468.41;5077924;28;20522;-60
2023/08/07 01:38:56;;;;;;;2.10;2.00;;;18.40;98.80;;;18.80;64.27;94478.44;5080509;28;20446;-62
2023/08/07 01:41:24;;;;;;;2.90;2.00;;;18.40;98.90;;;18.79;63.76;94471.47;5078689;28;20931;-59
2023/08/07 01:43:51;;;;;;;1.70;1.60;;;18.40;98.90;;;18.77;64.06;94476.19;5081409;28;20476;-60
2023/08/07 01:46:19;;;;;;;1.73;1.57;;;18.30;99.00;;;18.74;64.44;94468.59;5074592;28;20467;-59
2023/08/07 01:48:46;;;;;;;2.50;1.87;;;18.30;99.20;;;18.72;64.54;94467.97;5081936;28;20474;-61
2023/08/07 01:51:14;;;;;;;1.70;1.60;;;18.30;99.20;;;18.68;64.09;94474.72;5079393;28;20466;-60
2023/08/07 01:53:41;;;;;;;2.17;2.00;;;18.30;99.00;;;18.64;64.55;94475.13;5082425;28;20446;-61
2023/08/07 01:56:10;;;;;;;2.17;2.00;;;18.20;99.10;;;18.63;64.11;94483.31;5078633;28;20471;-61
2023/08/07 01:58:37;;;;;;;1.50;1.40;;;18.20;98.80;;;18.60;64.70;94478.38;5079671;28;20518;-60
2023/08/07 02:01:04;;;;;;;1.83;1.73;;;18.20;99.20;;;18.57;64.13;94476.13;5079851;28;20540;-60
2023/08/07 02:03:32;;;;;;;1.73;1.53;;;18.20;99.10;;;18.52;64.34;94468.72;5082170;28;20551;-59
2023/08/07 02:05:59;;;;;;;4.40;1.87;;;18.10;99.10;;;18.50;64.41;94478.75;5079220;28;20478;-58
2023/08/07 02:08:26;;;;;;;2.33;1.70;;;18.10;99.20;;;18.48;64.80;94474.63;5076443;28;20481;-57
2023/08/07 02:10:53;;;;;;;2.00;1.90;;;18.10;99.30;;;18.45;64.84;94475.84;5081526;28;20526;-56
2023/08/07 02:13:22;;;;;;;2.37;2.20;;;18.10;99.40;;;18.45;64.56;94478.50;5079220;28;20462;-57
2023/08/07 02:15:49;;;;;;;2.23;2.07;;;18.00;99.40;;;18.45;64.27;94483.84;5079348;28;20478;-56
2023/08/07 02:18:16;;;;;;;3.03;2.80;;;18.00;99.40;;;18.45;64.37;94481.19;5079522;28;21179;-57
2023/08/07 02:20:45;;;;;;;2.13;2.03;;;18.00;99.50;;;18.45;64.86;94491.81;5080082;28;20481;-56
2023/08/07 02:23:13;;;;;;;2.83;2.43;;;18.00;99.50;;;18.44;64.62;94487.53;5079356;28;20482;-57
2023/08/07 02:25:40;;;;;;;3.20;2.40;;;18.00;99.70;;;18.44;65.08;94501.66;5075928;28;21111;-58
2023/08/07 02:28:07;;;;;;;3.37;2.67;;;18.00;99.90;;;18.45;65.49;94499.81;5080583;28;20515;-57
2023/08/07 02:30:36;;;;;;;2.97;2.77;;;18.00;99.90;;;18.45;65.39;94494.50;5075767;28;20565;-56
2023/08/07 02:33:03;;;;;;;2.47;2.37;;;18.00;99.90;;;18.45;64.87;94497.16;5082368;28;20539;-56
2023/08/07 02:35:31;;;;;;;2.67;2.47;;;18.00;99.90;;;18.46;65.06;94504.13;5079262;28;20481;-56
2023/08/07 02:37:58;;;;;;;2.77;2.63;;;18.10;99.90;;;18.46;65.49;94504.94;5080994;28;20470;-57
2023/08/07 02:40:25;;;;;;;2.73;2.50;;;18.10;99.90;;;18.47;66.30;94500.47;5081557;28;20485;-57
2023/08/07 02:42:53;;;;;;;2.93;2.50;;;18.00;99.90;;;18.48;65.41;94503.94;5079199;28;20493;-55
2023/08/07 02:45:21;;;;;;;3.10;3.00;;;18.00;99.90;;;18.45;65.45;94505.13;5075722;28;20528;-57
2023/08/07 02:47:49;;;;;;;2.60;2.50;;;18.00;99.90;;;18.44;65.12;94500.84;5078232;28;20866;-57
2023/08/07 02:50:17;;;;;;;2.80;2.70;;;18.00;99.90;;;18.43;65.31;94499.19;5079693;28;20493;-56
2023/08/07 02:52:44;;;;;;;3.10;2.90;;;18.00;99.90;;;18.40;65.41;94515.56;5079307;28;20477;-58
2023/08/07 02:55:11;;;;;;;7.53;2.20;;;18.00;99.90;;;18.39;65.16;94513.94;5080762;28;20572;-57
2023/08/07 02:57:38;;;;;;;2.70;2.10;;;18.00;99.90;;;18.36;65.54;94509.81;5077658;28;20477;-55
2023/08/07 03:00:08;;;;;;;2.63;2.53;;;17.90;99.90;;;18.35;65.42;94504.69;5074681;28;20511;-56
2023/08/07 03:02:35;;;;;;;2.33;2.07;;;18.00;99.90;;;18.35;65.69;94507.38;5080462;28;20490;-56
2023/08/07 03:05:05;;;;;;;2.43;2.33;;;17.90;99.90;;;18.36;65.80;94514.34;5075760;28;20541;-57
2023/08/07 03:07:32;;;;;;;2.57;2.37;;;17.90;99.90;;;18.37;65.25;94515.97;5077580;28;20478;-57
2023/08/07 03:10:00;;;;;;;3.83;3.00;;;18.00;99.90;;;18.38;65.32;94512.28;5077437;28;20500;-55
2023/08/07 03:12:27;;;;;;;2.60;2.50;;;18.00;99.90;;;18.36;65.34;94517.00;5076702;28;20534;-57
2023/08/07 03:14:54;;;;;;;2.40;2.30;;;17.90;99.90;;;18.37;65.57;94523.94;5078601;28;20574;-57
2023/08/07 03:17:21;;;;;;;3.20;2.93;;;18.00;99.90;;;18.33;65.41;94525.38;5076702;28;20485;-58
2023/08/07 03:19:49;;;;;;;2.90;2.70;;;17.90;99.90;;;18.24;64.70;94530.03;5078165;28;20482;-57
2023/08/07 03:22:17;;;;;;;2.20;2.10;;;17.90;99.90;;;18.15;65.42;94529.34;5076249;28;21046;-57
2023/08/07 03:24:48;;;;;;;2.83;2.50;;;17.80;99.90;;;18.08;64.73;94536.50;5075154;28;20471;-57
2023/08/07 03:27:15;;;;;;;2.93;2.73;;;17.70;99.90;;;18.01;65.39;94536.44;5079586;28;20583;-56
2023/08/07 03:29:43;;;;;;;3.63;2.70;;;17.70;99.90;;;18.00;65.63;94536.63;5079308;28;20562;-57
2023/08/07 03:32:10;;;;;;;2.90;2.70;;;17.60;99.90;;;17.99;65.55;94535.81;5078881;28;20489;-55
2023/08/07 03:34:37;;;;;;;4.13;3.23;;;17.60;99.90;;;18.01;65.89;94540.94;5076258;28;20479;-62
2023/08/07 03:37:05;;;;;;;2.40;2.30;;;17.60;99.90;;;18.02;65.88;94551.38;5071492;28;20487;-57
2023/08/07 03:39:34;;;;;;;2.27;2.17;;;17.60;99.90;;;18.05;65.44;94563.50;5078359;28;20494;-56
2023/08/07 03:42:01;;;;;;;10.90;3.23;;;17.70;99.90;;;18.08;65.86;94555.13;5076154;28;20482;-57
2023/08/07 03:44:29;;;;;;;3.33;3.13;;;17.70;99.90;;;18.13;65.69;94567.84;5075872;28;20471;-59
2023/08/07 03:46:57;;;;;;;2.80;2.70;;;17.70;99.90;;;18.15;65.93;94565.81;5078011;28;20713;-57
2023/08/07 03:49:24;;;;;;;6.23;3.00;;;17.80;99.90;;;18.20;65.90;94569.53;5081218;28;20469;-57
2023/08/07 03:51:52;;;;;;;2.90;2.70;;;17.80;99.90;;;18.24;65.35;94575.28;5074436;28;20866;-60
2023/08/07 03:54:19;;;;;;;2.50;2.37;;;17.80;99.90;;;18.29;65.77;94572.84;5078002;28;20442;-60
2023/08/07 03:56:49;;;;;;;5.50;2.80;;;17.90;99.90;;;18.35;65.83;94579.25;5077384;28;20470;-60
2023/08/07 03:59:17;;;;;;;2.53;2.40;;;17.90;99.90;;;18.42;65.84;94580.13;5078007;28;20471;-60
2023/08/07 04:01:44;;;;;;;2.70;2.60;;;18.00;99.90;;;18.49;65.44;94582.81;5074815;28;20594;-61
2023/08/07 04:04:11;;;;;;;2.40;2.20;;;18.10;99.90;;;18.53;65.34;94573.41;5077330;28;20498;-61
2023/08/07 04:06:38;;;;;;;2.37;2.27;;;18.10;99.90;;;18.61;65.33;94584.72;5078694;28;20478;-60
2023/08/07 04:09:06;;;;;;;2.90;2.70;;;18.20;99.90;;;18.68;65.12;94591.94;5076605;28;20997;-59
2023/08/07 04:11:33;;;;;;;3.20;2.00;;;18.20;99.90;;;18.75;64.86;94593.63;5077099;28;20508;-61
2023/08/07 04:14:02;;;;;;;2.40;2.30;;;18.30;99.90;;;18.81;64.71;94592.81;5078912;28;20446;-61
2023/08/07 04:16:31;;;;;;;2.50;2.40;;;18.40;99.90;;;18.90;64.21;94595.34;5073967;28;20485;-58
2023/08/07 04:18:58;;;;;;;2.57;2.40;;;18.50;99.80;;;18.96;63.95;94600.72;5072736;28;20482;-57
2023/08/07 04:21:25;;;;;;;3.10;2.80;;;18.50;99.80;;;19.03;63.98;94592.75;5074849;28;20474;-58
2023/08/07 04:23:52;;;;;;;5.83;2.17;;;18.60;99.90;;;19.13;64.18;94589.69;5076967;28;20924;-57
2023/08/07 04:26:20;;;;;;;5.80;3.57;;;18.70;99.70;;;19.22;64.19;94599.16;5077121;28;21001;-57
2023/08/07 04:28:47;;;;;;;2.80;2.43;;;18.70;99.70;;;19.32;63.72;94598.81;5075409;28;20536;-57
2023/08/07 04:31:15;;;;;;;2.73;2.63;;;18.90;99.70;;;19.41;63.15;94602.94;5070036;28;20829;-59
2023/08/07 04:33:43;;;;;;;2.57;2.37;;;18.90;99.30;;;19.47;63.04;94598.63;5072849;28;21025;-60
2023/08/07 04:36:10;;;;;;;2.43;2.17;;;19.00;99.30;;;19.56;63.47;94607.28;5075320;28;20977;-60
2023/08/07 04:38:37;;;;;;;2.60;2.50;;;19.10;99.20;;;19.63;62.72;94602.78;5073364;28;20466;-59
2023/08/07 04:41:05;;;;;;;2.13;2.03;;;19.20;98.90;;;19.65;62.54;94606.88;5077199;28;21006;-59
2023/08/07 04:43:32;;;;;;;10.00;3.10;;;19.20;98.70;;;19.68;62.26;94603.00;5075975;28;20481;-61
2023/08/07 04:45:59;;;;;;;5.33;2.70;;;19.20;98.90;;;19.71;62.04;94607.91;5074435;28;20481;-60
2023/08/07 04:48:28;;;;;;;2.50;2.30;;;19.30;98.70;;;19.77;62.38;94608.97;5077235;28;20468;-58
2023/08/07 04:50:57;;;;;;;3.87;2.93;;;19.30;98.80;;;19.84;62.75;94602.59;5068394;28;20482;-57
2023/08/07 04:53:24;;;;;;;4.87;2.90;;;19.40;98.90;;;19.95;62.10;94603.03;5079770;28;20552;-57
2023/08/07 04:55:52;;;;;;;6.43;2.50;;;19.40;98.50;;;20.01;61.65;94596.88;5074211;28;20485;-58
2023/08/07 04:58:19;;;;;;;2.60;2.50;;;19.50;98.20;;;20.03;61.37;94595.66;5083084;28;21032;-63
2023/08/07 05:00:47;;;;;;;3.00;2.73;;;19.50;98.00;;;20.03;61.33;94601.00;5076090;28;20478;-62
2023/08/07 05:03:15;;;;;;;3.87;3.00;;;19.60;97.90;;;20.03;61.57;94600.16;5076539;28;20517;-62
2023/08/07 05:05:43;;;;;;;5.20;2.90;;;19.60;97.80;;;20.02;61.37;94602.03;5072320;28;20475;-58
2023/08/07 05:08:11;;;;;;;2.60;2.17;;;19.60;97.70;;;19.98;61.06;94598.09;5079721;28;20457;-63
2023/08/07 05:10:38;;;;;;;3.67;2.20;;;19.60;97.60;;;19.95;61.12;94595.03;5084095;28;20477;-61
2023/08/07 05:13:05;;;;;;;5.33;3.40;;;19.50;97.70;;;19.95;61.45;94595.84;5080237;28;20480;-59
2023/08/07 05:15:32;;;;;;;3.20;2.67;;;19.60;97.80;;;19.96;61.39;94589.50;5079980;28;20555;-63
2023/08/07 05:18:00;;;;;;;3.33;2.93;;;19.50;97.70;;;19.98;61.43;94584.75;5079539;28;20872;-58
2023/08/07 05:20:27;;;;;;;2.80;2.70;;;19.50;97.70;;;19.99;61.40;94589.06;5079217;28;20473;-62
2023/08/07 05:22:56;;;;;;;3.30;3.20;;;19.50;97.70;;;19.98;61.76;94592.75;5079692;28;20486;-62
2023/08/07 05:25:23;;;;;;;2.80;2.60;;;19.60;97.80;;;20.01;61.55;94588.88;5079361;28;20497;-56
2023/08/07 05:27:50;;;;;;;3.10;2.90;;;19.60;97.80;;;20.06;61.40;94597.06;5080649;28;20520;-59
2023/08/07 05:30:17;;;;;;;3.00;2.80;;;19.60;97.80;;;20.13;61.44;94594.44;5079048;28;20977;-63
2023/08/07 05:32:44;;;;;;;4.03;3.70;;;19.70;97.90;;;20.23;61.20;94590.31;5079971;28;20911;-62
2023/08/07 05:35:12;;;;;;;3.80;3.60;;;19.80;97.70;;;20.36;60.78;94594.81;5080118;28;20603;-59
2023/08/07 05:37:39;;;;;;;2.90;2.80;;;19.80;97.50;;;20.51;60.56;94601.78;5079980;28;20515;-59
2023/08/07 05:40:11;;;;;;;3.80;3.60;;;20.00;97.50;;;20.70;60.40;94610.84;5081511;28;20458;-58
2023/08/07 05:42:39;;;;;;;2.80;2.40;;;20.10;97.20;;;20.90;59.57;94605.44;5076474;28;20450;-59
2023/08/07 05:45:08;;;;;;;3.23;2.73;;;20.30;96.70;;;21.09;59.23;94615.22;5080719;28;20446;-58
2023/08/07 05:47:35;;;;;;;6.80;2.57;;;20.50;96.50;;;21.29;58.54;94609.00;5078807;28;20482;-62
2023/08/07 05:50:02;;;;;;;2.73;2.53;;;20.70;95.90;;;21.49;58.10;94611.59;5078742;28;20497;-59
2023/08/07 05:52:30;;;;;;;8.33;2.57;;;20.90;95.70;;;21.71;58.04;94616.63;5079149;28;20442;-57
2023/08/07 05:54:57;;;;;;;2.47;2.37;;;21.10;95.40;;;21.93;57.33;94609.88;5079870;28;20930;-63
2023/08/07 05:57:26;;;;;;;2.20;2.10;;;21.30;94.90;;;22.17;56.22;94608.25;5078567;28;20470;-58
2023/08/07 05:59:53;;;;;;;2.50;2.30;;;21.50;94.20;;;22.39;56.18;94605.22;5078549;28;20522;-64
2023/08/07 06:02:20;;;;;;;2.50;2.27;;;21.70;93.80;;;22.65;55.68;94608.69;5078018;28;20900;-59
2023/08/07 06:04:48;;;;;;;1.77;1.67;;;22.00;93.20;;;22.83;55.39;94605.22;5078423;28;20563;-62
2023/08/07 06:07:15;;;;;;;2.17;1.80;;;22.20;92.70;;;23.05;54.83;94605.56;5075814;28;21056;-64
2023/08/07 06:09:42;;;;;;;3.10;2.80;;;22.40;92.20;;;23.24;54.29;94609.13;5077388;28;20455;-59
2023/08/07 06:12:10;;;;;;;4.10;2.30;;;22.60;91.60;;;23.40;53.72;94605.00;5081884;28;20474;-58
2023/08/07 06:14:38;;;;;;;2.37;2.20;;;22.70;90.90;;;23.57;53.18;94600.63;5077012;28;20829;-64
2023/08/07 06:17:06;;;;;;;2.00;1.87;;;22.90;90.90;;;23.76;53.45;94595.19;5081781;28;20561;-64
2023/08/07 06:19:34;;;;;;;2.23;1.87;;;23.10;90.50;;;23.95;51.61;94594.13;5076489;28;20453;-63
2023/08/07 06:22:01;;;;;;;3.30;3.03;;;23.30;89.10;;;24.14;51.33;94594.03;5079484;28;20484;-64
2023/08/07 06:24:28;;;;;;;3.10;2.23;;;23.40;86.70;;;24.30;51.17;94587.97;5080067;28;20551;-60
2023/08/07 06:26:55;;;;;;;2.00;1.90;;;23.60;87.40;;;24.48;51.10;94583.56;5077813;28;21099;-58
2023/08/07 06:29:23;;;;;;;2.60;2.10;;;23.70;85.80;;;24.61;50.27;94586.03;5079213;28;20454;-57
2023/08/07 06:31:51;;;;;;;3.10;2.37;;;23.90;84.60;;;24.75;50.69;94580.41;5078658;28;20519;-57
2023/08/07 06:34:18;;;;;;;1.93;1.83;;;24.00;84.70;;;24.95;50.57;94590.81;5078638;28;20517;-64
2023/08/07 06:36:46;;;;;;;2.03;1.73;;;24.20;84.30;;;25.12;50.05;94591.69;5079776;28;20483;-59
2023/08/07 06:39:13;;;;;;;7.53;1.90;;;24.40;82.90;;;25.29;49.14;94591.81;5077345;28;20516;-60
2023/08/07 06:41:40;;;;;;;5.93;1.57;;;24.60;82.20;;;25.44;48.69;94587.75;5081238;28;20876;-60
2023/08/07 06:44:07;;;;;;;1.40;1.30;;;24.70;79.80;;;25.55;48.41;94595.00;5076107;28;20485;-59
2023/08/07 06:46:35;;;;;;;1.57;1.33;;;24.80;79.40;;;25.68;47.87;94600.09;5081881;28;20518;-64
2023/08/07 06:49:03;;;;;;;3.40;1.20;;;25.00;78.50;;;25.85;47.49;94593.94;5074672;28;20457;-63
2023/08/07 06:51:31;;;;;;;3.07;1.50;;;25.10;77.00;;;26.02;46.52;94594.78;5074637;28;20462;-63
2023/08/07 06:53:58;;;;;;;5.40;1.77;;;25.30;76.30;;;26.21;46.05;94603.50;5079293;28;20442;-59
2023/08/07 06:56:25;;;;;;;3.80;1.10;;;25.50;75.10;;;26.36;45.91;94600.22;5083019;28;20462;-58
2023/08/07 06:58:52;;;;;;;1.30;1.20;;;25.60;73.90;;;26.53;44.96;94599.41;5072586;28;20457;-64
2023/08/07 07:01:19;;;;;;;1.37;1.27;;;25.80;72.60;;;26.68;44.31;94599.66;5076941;28;20554;-58
2023/08/07 07:03:52;;;;;;;1.30;1.10;;;25.90;70.60;;;26.83;44.30;94594.47;5079094;28;21163;-65
2023/08/07 07:06:23;;;;;;;1.13;1.03;;;26.10;70.60;;;26.98;43.95;94599.25;5074377;28;20470;-63
2023/08/07 07:08:50;;;;;;;1.40;1.20;;;26.30;70.00;;;27.09;43.63;94597.50;5078795;28;20452;-60
2023/08/07 07:11:17;;;;;;;3.57;2.47;;;26.40;69.60;;;27.17;43.38;94601.66;5075784;28;20529;-58
2023/08/07 07:13:44;;;;;;;2.13;2.03;;;26.50;68.50;;;27.26;43.36;94592.06;5078963;28;20969;-63
2023/08/07 07:16:12;;;;;;;5.10;2.00;;;26.50;68.50;;;27.43;42.37;94600.13;5077237;28;20474;-58
2023/08/07 07:18:40;;;;;;;3.37;3.17;;;26.70;67.10;;;27.61;42.31;94608.97;5079097;28;21062;-64
2023/08/07 07:21:07;;;;;;;2.83;2.73;;;26.80;65.80;;;27.72;42.60;94600.72;5078153;28;20535;-63
2023/08/07 07:23:36;;;;;;;1.70;1.60;;;26.90;66.70;;;27.86;42.14;94584.09;5077311;28;20485;-64
2023/08/07 07:26:03;;;;;;;4.90;1.40;;;27.10;66.90;;;28.02;42.06;94590.50;5077159;28;20961;-64
2023/08/07 07:28:30;;;;;;;1.03;0.97;;;27.20;65.50;;;28.08;41.66;94586.78;5078366;28;20526;-59
2023/08/07 07:30:57;;;;;;;2.90;1.23;;;27.40;65.20;;;28.22;41.20;94589.88;5077916;28;20489;-65
2023/08/07 07:33:25;;;;;;;2.20;1.10;;;27.40;63.70;;;28.34;40.64;94578.88;5079872;28;20613;-63
2023/08/07 07:35:52;;;;;;;1.33;1.20;;;27.60;63.20;;;28.49;40.72;94581.72;5076011;28;20470;-60
2023/08/07 07:38:19;;;;;;;3.20;1.27;;;27.70;63.30;;;28.64;40.33;94582.91;5080156;28;20472;-64
2023/08/07 07:40:48;;;;;;;5.00;1.10;;;27.90;63.00;;;28.79;39.33;94578.41;5075078;28;20549;-64
2023/08/07 07:43:15;;;;;;;3.27;1.53;;;28.00;61.70;;;28.98;39.51;94581.47;5077997;28;20506;-60
2023/08/07 07:45:43;;;;;;;1.80;1.70;;;28.20;60.90;;;29.20;37.91;94585.94;5079164;28;21468;-63
2023/08/07 07:48:10;;;;;;;2.13;1.47;;;28.30;58.90;;;29.38;38.81;94589.28;5078960;28;20445;-64
2023/08/07 07:50:37;;;;;;;2.20;1.67;;;28.60;59.30;;;29.53;38.19;94592.06;5079145;28;20474;-59
2023/08/07 07:53:06;;;;;;;1.70;1.60;;;28.80;58.50;;;29.68;37.71;94592.13;5079921;28;20481;-64
2023/08/07 07:55:34;;;;;;;1.00;0.90;;;28.90;58.10;;;29.81;37.06;94588.09;5079180;28;20224;-65
2023/08/07 07:58:02;;;;;;;1.30;1.20;;;29.10;57.90;;;29.95;37.86;94585.69;5079454;28;20210;-64
2023/08/07 08:00:30;;;;;;;1.40;1.10;;;29.20;57.80;;;30.15;37.55;94573.25;5078674;28;20364;-64
2023/08/07 08:02:57;;;;;;;6.20;1.17;;;29.30;57.60;;;30.35;36.45;94578.66;5078585;28;20215;-57
2023/08/07 08:05:24;;;;;;;1.47;1.37;;;29.60;56.90;;;30.55;36.56;94580.59;5080438;28;20280;-58
2023/08/07 08:07:51;;;;;;;1.93;0.83;;;29.80;56.20;;;30.61;36.12;94575.94;5077739;28;20204;-58
2023/08/07 08:10:19;;;;;;;4.03;1.00;;;29.90;56.10;;;30.79;36.24;94576.50;5073654;28;20251;-58
2023/08/07 08:12:46;;;;;;;4.10;0.93;;;30.00;56.10;;;30.98;35.60;94574.81;5076517;28;20204;-59
2023/08/07 08:15:15;;;;;;;3.40;0.90;;;30.20;55.60;;;31.17;34.97;94583.22;5078661;28;20200;-58
2023/08/07 08:17:42;;;;;;;0.90;0.80;;;30.40;54.90;;;31.41;34.79;94579.84;5075536;28;20216;-58
2023/08/07 08:20:10;;;;;;;2.87;1.00;;;30.60;54.40;;;31.65;34.39;94577.31;5077223;28;20252;-64
2023/08/07 08:22:38;;;;;;;1.17;1.07;;;30.90;53.80;;;31.77;34.52;94566.91;5075020;28;20257;-63
2023/08/07 08:25:06;;;;;;;1.10;1.00;;;31.00;54.10;;;31.90;34.22;94568.22;5078901;28;20223;-64
2023/08/07 08:27:33;;;;;;;1.00;0.90;;;31.10;53.00;;;32.11;33.98;94566.19;5079224;28;20203;-59
2023/08/07 08:30:01;;;;;;;2.25;0.70;;;31.30;53.00;;;32.31;33.55;94561.69;5082806;28;20203;-58
2023/08/07 08:32:29;;;;;;;1.08;0.88;;;31.50;52.00;;;32.52;33.09;94563.13;5080880;28;20277;-64
2023/08/07 08:34:57;;;;;;;1.13;1.02;;;31.70;51.80;;;32.74;32.21;94561.06;5080472;28;20211;-64
2023/08/07 08:37:24;;;;;;;4.53;0.90;;;32.00;50.70;;;32.89;32.21;94555.47;5080721;28;20797;-64
2023/08/07 08:39:51;;;;;;;3.22;1.30;;;32.10;50.60;;;33.03;31.69;94561.00;5082264;28;20206;-65
2023/08/07 08:42:20;;;;;;;2.67;1.02;;;32.30;49.50;;;32.95;31.83;94548.03;5080773;28;20310;-65
2023/08/07 08:44:49;;;;;;;1.10;1.00;;;32.20;49.70;;;33.04;31.84;94551.75;5078459;28;20673;-64
2023/08/07 08:47:16;;;;;;;1.10;0.98;;;32.30;49.80;;;33.21;31.95;94549.38;5080682;28;20223;-57
2023/08/07 08:49:48;;;;;;;1.25;1.15;;;32.40;49.80;;;33.47;31.89;94549.09;5078871;28;20239;-58
2023/08/07 08:52:15;;;;;;;2.95;2.00;;;32.60;49.70;;;33.68;31.50;94549.63;5079084;28;20771;-65
2023/08/07 08:54:42;;;;;;;1.00;0.90;;;32.90;49.60;;;33.88;31.84;94556.75;5084317;28;20202;-58
2023/08/07 08:57:10;;;;;;;7.93;1.02;;;33.10;49.10;;;34.09;30.93;94548.25;5078081;28;20219;-63
2023/08/07 08:59:37;;;;;;;33.22;2.97;;;33.30;48.70;;;34.25;31.49;94544.19;5077947;28;20269;-63
2023/08/07 09:02:05;;;;;;;167.10;9.80;;;33.50;48.30;;;34.41;31.03;94554.84;5078606;28;20215;-63
2023/08/07 09:04:32;;;;;;;54.38;4.13;;;33.60;48.00;;;34.52;29.79;94556.31;5082384;28;20227;-64
2023/08/07 09:07:01;;;;;;;78.88;5.20;;;33.70;47.40;;;34.60;30.06;94552.91;5078675;28;20707;-60
2023/08/07 09:09:28;;;;;;;14.18;1.30;;;33.80;47.10;;;34.71;30.37;94552.72;5078616;28;20196;-64
2023/08/07 09:11:57;;;;;;;7.78;1.10;;;34.00;47.20;;;34.78;30.22;94553.16;5082818;28;20227;-63
2023/08/07 09:14:30;;;;;;;2.65;1.17;;;34.00;46.60;;;34.82;29.57;94548.72;5077171;28;20279;-64
2023/08/07 09:16:57;;;;;;;2.70;1.42;;;34.00;46.70;;;34.74;29.90;94546.66;5079585;28;20227;-64
2023/08/07 09:19:24;;;;;;;1.73;1.40;;;34.00;45.80;;;34.56;29.36;94538.22;5076808;28;20204;-64
2023/08/07 09:21:52;;;;;;;5.03;1.02;;;33.90;45.90;;;34.39;29.37;94530.56;5080002;28;20236;-64
2023/08/07 09:24:22;;;;;;;1.00;0.90;;;33.70;45.60;;;34.24;29.29;94523.47;5079718;28;20270;-58
2023/08/07 09:26:49;;;;;;;2.55;1.00;;;33.50;45.70;;;34.00;30.09;94514.56;5077543;28;20314;-58
2023/08/07 09:29:16;;;;;;;3.70;1.58;;;33.40;45.90;;;33.99;30.17;94515.66;5078453;28;20207;-63
2023/08/07 09:31:46;;;;;;;5.10;1.35;;;33.30;46.40;;;34.10;29.88;94525.31;5083372;28;20230;-59
2023/08/07 09:34:17;;;;;;;4.03;1.30;;;33.40;46.50;;;34.27;30.12;94530.22;5076845;28;20224;-60
2023/08/07 09:36:45;;;;;;;54.45;3.72;;;33.50;46.20;;;34.39;29.42;94529.78;5076299;28;20254;-64
2023/08/07 09:39:12;;;;;;;19.92;2.15;;;33.60;44.90;;;34.38;29.05;94528.16;5075670;28;20206;-63
2023/08/07 09:41:41;;;;;;;31.95;2.28;;;33.60;45.50;;;34.40;29.59;94520.47;5075407;28;20960;-65
2023/08/07 09:44:09;;;;;;;10.57;1.30;;;33.70;45.50;;;34.49;29.45;94521.41;5080118;28;20600;-63
2023/08/07 09:46:42;;;;;;;4.00;1.05;;;33.70;45.40;;;34.57;29.48;94517.97;5075919;28;20224;-64
2023/08/07 09:49:10;;;;;;;1.33;1.05;;;33.80;44.60;;;34.51;28.44;94521.91;5074462;28;20695;-64
2023/08/07 09:51:44;;;;;;;9.65;1.17;;;33.70;43.60;;;34.30;28.12;94508.63;5078475;28;20289;-64
2023/08/07 09:54:11;;;;;;;46.25;4.18;;;33.70;44.30;;;34.29;28.79;94515.19;5080450;28;20672;-60
2023/08/07 09:56:41;;;;;;;43.67;3.35;;;33.60;44.80;;;34.39;28.37;94521.59;5081270;28;20220;-65
2023/08/07 09:59:09;;;;;;;4.32;1.67;;;33.60;44.40;;;34.42;28.61;94527.25;5082374;28;20290;-65
2023/08/07 10:01:39;;;;;;;16.13;1.40;;;33.60;44.60;;;34.48;29.25;94522.50;5077117;28;20224;-63
2023/08/07 10:04:07;;;;;;;11.23;1.25;;;33.70;44.60;;;34.53;28.62;94522.41;5079605;28;20227;-59
2023/08/07 10:06:35;;;;;;;6.55;0.90;;;33.80;44.40;;;34.60;28.54;94519.31;5078596;28;20285;-64
2023/08/07 10:09:04;;;;;;;5.35;1.35;;;33.80;44.20;;;34.62;29.01;94522.53;5080104;28;20204;-63
2023/08/07 10:11:31;;;;;;;12.02;2.25;;;33.90;44.30;;;34.65;29.04;94528.22;5080334;28;20220;-64
2023/08/07 10:14:00;;;;;;;1.58;1.10;;;33.80;44.20;;;34.66;28.36;94521.66;5077589;28;20199;-64
2023/08/07 10:16:28;;;;;;;15.68;2.03;;;33.90;44.10;;;34.62;28.64;94517.88;5079480;28;20323;-63
2023/08/07 10:18:56;;;;;;;6.45;1.83;;;33.80;44.30;;;34.65;28.68;94521.94;5076176;28;20290;-59
2023/08/07 10:21:23;;;;;;;19.52;1.60;;;33.90;44.60;;;34.66;27.71;94513.44;5079015;28;20785;-58